createdAt,value
2022-09-13T00:01:48.918Z,97739.50
2022-09-13T00:03:53.323Z,97731.75
2022-09-13T00:05:56.562Z,97724.03
2022-09-13T00:07:59.661Z,97727.59
2022-09-13T00:10:02.575Z,97730.38
2022-09-13T00:12:06.055Z,97729.03
2022-09-13T00:14:08.967Z,97730.81
2022-09-13T00:16:13.519Z,97734.28
2022-09-13T00:18:17.731Z,97726.41
2022-09-13T00:20:22.085Z,97716.03
2022-09-13T00:22:25.065Z,97715.19
2022-09-13T00:24:28.103Z,97714.66
2022-09-13T00:26:31.059Z,97720.06
2022-09-13T00:28:33.997Z,97721.88
2022-09-13T00:30:37.118Z,97722.16
2022-09-13T00:32:40.284Z,97720.63
2022-09-13T00:34:43.388Z,97725.22
2022-09-13T00:36:47.650Z,97711.69
2022-09-13T00:38:50.714Z,97714.47
2022-09-13T00:40:53.882Z,97706.00
2022-09-13T00:42:56.883Z,97705.19
2022-09-13T00:45:01.592Z,97706.16
2022-09-13T00:47:06.278Z,97705.34
2022-09-13T00:49:15.414Z,97707.13
2022-09-13T00:51:18.415Z,97707.13
2022-09-13T00:53:27.057Z,97717.50
2022-09-13T00:55:33.410Z,97723.88
2022-09-13T00:57:36.993Z,97715.59
2022-09-13T00:59:44.601Z,97715.03
2022-09-13T01:01:51.072Z,97704.81
2022-09-13T01:03:56.540Z,97703.31
2022-09-13T01:06:03.388Z,97701.63
2022-09-13T01:08:22.880Z,97703.44
2022-09-13T01:10:27.768Z,97696.53
2022-09-13T01:12:36.362Z,97694.75
2022-09-13T01:14:39.845Z,97690.44
2022-09-13T01:16:47.162Z,97694.16
2022-09-13T01:18:50.997Z,97700.41
2022-09-13T01:21:12.592Z,97694.28
2022-09-13T01:23:40.997Z,97703.03
2022-09-13T01:26:02.378Z,97707.56
2022-09-13T01:28:18.398Z,97708.41
2022-09-13T01:30:24.010Z,97707.03
2022-09-13T01:32:33.692Z,97708.13
2022-09-13T01:34:44.493Z,97711.75
2022-09-13T01:37:08.973Z,97709.25
2022-09-13T01:39:15.975Z,97709.69
2022-09-13T01:41:33.662Z,97708.03
2022-09-13T01:43:43.913Z,97702.09
2022-09-13T01:45:54.046Z,97705.69
2022-09-13T01:47:59.918Z,97706.63
2022-09-13T01:50:14.114Z,97710.25
2022-09-13T01:52:25.029Z,97698.34
2022-09-13T01:54:36.100Z,97700.31
2022-09-13T01:56:42.475Z,97695.19
2022-09-13T01:58:49.680Z,97696.28
2022-09-13T02:01:00.554Z,97692.00
2022-09-13T02:03:07.070Z,97695.47
2022-09-13T02:05:16.237Z,97691.19
2022-09-13T02:07:21.461Z,97686.06
2022-09-13T02:09:27.296Z,97693.00
2022-09-13T02:11:30.313Z,97694.94
2022-09-13T02:13:37.449Z,97696.56
2022-09-13T02:15:45.045Z,97698.53
2022-09-13T02:17:53.456Z,97699.34
2022-09-13T02:19:58.596Z,97696.16
2022-09-13T02:22:02.066Z,97697.41
2022-09-13T02:24:07.923Z,97694.91
2022-09-13T02:26:13.945Z,97687.03
2022-09-13T02:28:21.130Z,97685.28
2022-09-13T02:30:24.144Z,97696.59
2022-09-13T02:32:31.558Z,97696.59
2022-09-13T02:34:39.531Z,97702.94
2022-09-13T02:36:44.040Z,97702.94
2022-09-13T02:38:52.001Z,97707.66
2022-09-13T02:40:58.739Z,97709.59
2022-09-13T02:43:06.380Z,97720.38
2022-09-13T02:45:10.575Z,97710.13
2022-09-13T02:47:22.657Z,97708.34
2022-09-13T02:49:29.398Z,97706.00
2022-09-13T02:51:39.874Z,97698.25
2022-09-13T02:53:45.598Z,97697.56
2022-09-13T02:55:56.392Z,97700.19
2022-09-13T02:58:03.976Z,97689.84
2022-09-13T03:00:08.399Z,97689.13
2022-09-13T03:02:14.383Z,97690.78
2022-09-13T03:04:17.571Z,97686.50
2022-09-13T03:06:24.918Z,97685.00
2022-09-13T03:08:29.980Z,97681.97
2022-09-13T03:10:40.033Z,97686.22
2022-09-13T03:13:07.105Z,97692.03
2022-09-13T03:15:15.431Z,97695.34
2022-09-13T03:17:31.324Z,97697.13
2022-09-13T03:19:54.789Z,97706.13
2022-09-13T03:22:10.905Z,97708.06
2022-09-13T03:24:19.350Z,97709.31
2022-09-13T03:26:30.431Z,97699.91
2022-09-13T03:28:39.305Z,97695.78
2022-09-13T03:30:46.068Z,97690.81
2022-09-13T03:32:52.448Z,97689.94
2022-09-13T03:35:02.902Z,97686.50
2022-09-13T03:37:09.058Z,97687.47
2022-09-13T03:39:15.359Z,97680.59
2022-09-13T03:41:21.333Z,97670.09
2022-09-13T03:43:29.528Z,97684.16
2022-09-13T03:45:34.811Z,97686.66
2022-09-13T03:47:38.665Z,97686.66
2022-09-13T03:49:41.666Z,97689.94
2022-09-13T03:51:46.050Z,97691.75
2022-09-13T03:53:53.680Z,97711.78
2022-09-13T03:55:56.711Z,97708.44
2022-09-13T03:58:01.129Z,97708.44
2022-09-13T04:00:05.588Z,97709.56
2022-09-13T04:02:15.150Z,97690.63
2022-09-13T04:04:18.449Z,97683.03
2022-09-13T04:06:21.555Z,97679.72
2022-09-13T04:08:24.485Z,97673.66
2022-09-13T04:10:27.449Z,97665.09
2022-09-13T04:12:31.164Z,97671.47
2022-09-13T04:14:35.517Z,97675.03
2022-09-13T04:16:38.685Z,97675.03
2022-09-13T04:18:41.954Z,97675.03
2022-09-13T04:20:44.985Z,97674.34
2022-09-13T04:22:52.728Z,97667.44
2022-09-13T04:24:58.115Z,97648.25
2022-09-13T04:27:04.990Z,97645.78
2022-09-13T04:29:07.963Z,97642.56
2022-09-13T04:31:12.285Z,97644.34
2022-09-13T04:33:16.097Z,97663.56
2022-09-13T04:35:19.856Z,97666.75
2022-09-13T04:37:23.617Z,97677.38
2022-09-13T04:39:26.651Z,97676.25
2022-09-13T04:41:30.011Z,97666.19
2022-09-13T04:43:33.021Z,97670.03
2022-09-13T04:45:36.049Z,97681.31
2022-09-13T04:47:40.673Z,97682.31
2022-09-13T04:49:43.665Z,97684.66
2022-09-13T04:51:46.760Z,97690.72
2022-09-13T04:53:53.752Z,97693.22
2022-09-13T04:56:01.744Z,97695.72
2022-09-13T04:58:04.971Z,97701.41
2022-09-13T05:00:10.059Z,97704.69
2022-09-13T05:02:13.241Z,97716.72
2022-09-13T05:04:17.934Z,97721.03
2022-09-13T05:06:21.568Z,97711.88
2022-09-13T05:08:24.821Z,97710.81
2022-09-13T05:10:28.056Z,97721.16
2022-09-13T05:12:31.094Z,97725.31
2022-09-13T05:14:35.066Z,97727.81
2022-09-13T05:16:38.086Z,97735.13
2022-09-13T05:18:45.129Z,97730.28
2022-09-13T05:20:50.022Z,97727.25
2022-09-13T05:22:53.011Z,97732.53
2022-09-13T05:24:56.718Z,97724.75
2022-09-13T05:26:59.736Z,97730.00
2022-09-13T05:29:03.061Z,97722.22
2022-09-13T05:31:07.845Z,97721.63
2022-09-13T05:33:10.817Z,97727.28
2022-09-13T05:35:13.918Z,97743.28
2022-09-13T05:37:18.272Z,97735.41
2022-09-13T05:39:36.269Z,97733.59
2022-09-13T05:41:45.340Z,97738.69
2022-09-13T05:43:48.551Z,97740.94
2022-09-13T05:45:51.497Z,97738.75
2022-09-13T05:47:54.475Z,97742.66
2022-09-13T05:50:23.104Z,97739.31
2022-09-13T05:52:21.755Z,97734.34
2022-09-13T05:54:24.777Z,97740.59
2022-09-13T05:56:29.383Z,97743.50
2022-09-13T05:58:32.342Z,97743.78
2022-09-13T06:00:35.277Z,97747.91
2022-09-13T06:02:38.323Z,97742.38
2022-09-13T06:04:41.438Z,97753.44
2022-09-13T06:06:44.418Z,97751.78
2022-09-13T06:08:49.209Z,97751.78
2022-09-13T06:10:56.236Z,97749.16
2022-09-13T06:12:59.163Z,97745.41
2022-09-13T06:15:02.183Z,97743.72
2022-09-13T06:17:05.287Z,97742.19
2022-09-13T06:19:08.841Z,97746.88
2022-09-13T06:21:17.552Z,97746.28
2022-09-13T06:23:20.468Z,97758.16
2022-09-13T06:25:24.826Z,97754.13
2022-09-13T06:27:27.804Z,97759.63
2022-09-13T06:29:31.559Z,97764.31
2022-09-13T06:31:34.689Z,97763.06
2022-09-13T06:33:39.192Z,97768.03
2022-09-13T06:35:42.292Z,97769.53
2022-09-13T06:37:45.268Z,97771.72
2022-09-13T06:39:48.393Z,97765.88
2022-09-13T06:41:52.939Z,97760.31
2022-09-13T06:44:02.827Z,97755.63
2022-09-13T06:46:07.934Z,97748.94
2022-09-13T06:48:10.958Z,97753.31
2022-09-13T06:50:14.609Z,97755.19
2022-09-13T06:52:17.801Z,97755.97
2022-09-13T06:54:20.890Z,97752.00
2022-09-13T06:56:25.031Z,97744.91
2022-09-13T06:58:31.579Z,97751.06
2022-09-13T07:00:34.568Z,97757.69
2022-09-13T07:02:37.603Z,97759.09
2022-09-13T07:04:40.621Z,97764.25
2022-09-13T07:06:44.975Z,97761.19
2022-09-13T07:08:48.987Z,97756.09
2022-09-13T07:10:52.064Z,97750.91
2022-09-13T07:12:55.018Z,97739.41
2022-09-13T07:14:59.295Z,97746.13
2022-09-13T07:17:02.248Z,97748.16
2022-09-13T07:19:07.049Z,97751.28
2022-09-13T07:21:11.788Z,97749.69
2022-09-13T07:23:15.489Z,97743.63
2022-09-13T07:25:18.516Z,97731.59
2022-09-13T07:27:21.489Z,97735.91
2022-09-13T07:29:24.890Z,97741.88
2022-09-13T07:31:31.228Z,97744.50
2022-09-13T07:33:34.239Z,97750.41
2022-09-13T07:35:37.217Z,97750.16
2022-09-13T07:37:42.282Z,97747.47
2022-09-13T07:39:45.320Z,97744.63
2022-09-13T07:41:48.430Z,97763.16
2022-09-13T07:43:51.872Z,97772.63
2022-09-13T07:45:59.016Z,97767.72
2022-09-13T07:48:03.821Z,97767.63
2022-09-13T07:50:07.723Z,97768.31
2022-09-13T07:52:11.032Z,97768.69
2022-09-13T07:54:15.915Z,97761.34
2022-09-13T07:56:20.240Z,97756.22
2022-09-13T07:58:23.392Z,97755.59
2022-09-13T08:00:26.318Z,97743.84
2022-09-13T08:02:29.726Z,97742.41
2022-09-13T08:04:36.384Z,97744.69
2022-09-13T08:06:40.856Z,97737.19
2022-09-13T08:08:43.925Z,97739.53
2022-09-13T08:10:49.479Z,97749.84
2022-09-13T08:12:52.617Z,97753.16
2022-09-13T08:14:55.640Z,97751.81
2022-09-13T08:16:58.614Z,97748.50
2022-09-13T08:19:03.637Z,97753.44
2022-09-13T08:21:08.184Z,97758.50
2022-09-13T08:23:12.474Z,97756.41
2022-09-13T08:25:15.495Z,97753.81
2022-09-13T08:27:18.505Z,97764.38
2022-09-13T08:29:21.496Z,97759.69
2022-09-13T08:31:25.208Z,97762.34
2022-09-13T08:33:28.229Z,97750.47
2022-09-13T08:35:31.396Z,97754.09
2022-09-13T08:37:36.358Z,97765.28
2022-09-13T08:39:39.829Z,97756.34
2022-09-13T08:42:02.542Z,97753.16
2022-09-13T08:44:09.757Z,97734.31
2022-09-13T08:46:19.616Z,97749.94
2022-09-13T08:48:24.784Z,97749.84
2022-09-13T08:50:29.231Z,97741.47
2022-09-13T08:52:37.112Z,97738.84
2022-09-13T08:54:40.134Z,97744.50
2022-09-13T08:56:47.512Z,97743.69
2022-09-13T08:59:06.678Z,97753.44
2022-09-13T09:01:14.944Z,97736.66
2022-09-13T09:03:26.324Z,97730.66
2022-09-13T09:05:30.527Z,97741.31
2022-09-13T09:07:38.254Z,97733.75
2022-09-13T09:09:45.097Z,97739.78
2022-09-13T09:11:52.528Z,97742.69
2022-09-13T09:13:59.499Z,97744.69
2022-09-13T09:16:07.458Z,97740.94
2022-09-13T09:18:14.329Z,97739.00
2022-09-13T09:20:26.841Z,97730.91
2022-09-13T09:22:34.410Z,97723.84
2022-09-13T09:24:40.088Z,97734.47
2022-09-13T09:26:43.043Z,97729.16
2022-09-13T09:28:48.834Z,97727.94
2022-09-13T09:30:59.875Z,97730.84
2022-09-13T09:33:14.631Z,97725.78
2022-09-13T09:35:27.354Z,97725.59
2022-09-13T09:37:31.399Z,97723.19
2022-09-13T09:39:38.926Z,97716.84
2022-09-13T09:41:44.117Z,97716.91
2022-09-13T09:43:52.490Z,97712.88
2022-09-13T09:45:56.417Z,97720.28
2022-09-13T09:48:03.538Z,97717.84
2022-09-13T09:50:12.132Z,97720.72
2022-09-13T09:52:18.058Z,97719.53
2022-09-13T09:54:21.298Z,97720.56
2022-09-13T09:56:25.712Z,97718.94
2022-09-13T09:58:40.784Z,97712.06
2022-09-13T10:00:52.756Z,97716.66
2022-09-13T10:02:59.501Z,97711.56
2022-09-13T10:05:04.922Z,97705.41
2022-09-13T10:07:18.617Z,97710.13
2022-09-13T10:09:22.927Z,97706.88
2022-09-13T10:11:26.835Z,97715.56
2022-09-13T10:13:31.859Z,97711.88
2022-09-13T10:15:36.491Z,97718.06
2022-09-13T10:17:39.572Z,97727.72
2022-09-13T10:19:43.032Z,97730.50
2022-09-13T10:22:00.900Z,97738.91
2022-09-13T10:24:19.163Z,97739.22
2022-09-13T10:26:23.700Z,97741.59
2022-09-13T10:28:27.365Z,97731.63
2022-09-13T10:30:34.469Z,97723.59
2022-09-13T10:32:38.838Z,97733.88
2022-09-13T10:34:44.178Z,97726.28
2022-09-13T10:36:53.549Z,97724.03
2022-09-13T10:38:59.705Z,97720.72
2022-09-13T10:41:05.147Z,97715.56
2022-09-13T10:43:15.147Z,97712.09
2022-09-13T10:45:23.496Z,97709.03
2022-09-13T10:47:31.164Z,97700.38
2022-09-13T10:49:45.522Z,97701.81
2022-09-13T10:51:48.643Z,97705.28
2022-09-13T10:53:51.649Z,97702.19
2022-09-13T10:55:55.843Z,97701.97
2022-09-13T10:58:15.373Z,97701.09
2022-09-13T11:00:20.074Z,97697.31
2022-09-13T11:02:36.502Z,97707.59
2022-09-13T11:05:18.786Z,97707.59
2022-09-13T11:07:35.078Z,97707.63
2022-09-13T11:09:42.683Z,97700.25
2022-09-13T11:11:52.516Z,97699.06
2022-09-13T11:14:07.271Z,97687.13
2022-09-13T11:16:22.462Z,97690.44
2022-09-13T11:18:55.299Z,97690.91
2022-09-13T11:21:07.704Z,97692.97
2022-09-13T11:23:38.130Z,97698.00
2022-09-13T11:25:50.222Z,97703.88
2022-09-13T11:27:58.307Z,97704.50
2022-09-13T11:30:14.113Z,97694.44
2022-09-13T11:32:28.080Z,97694.88
2022-09-13T11:34:38.770Z,97698.22
2022-09-13T11:37:11.017Z,97699.91
2022-09-13T11:39:22.070Z,97695.22
2022-09-13T11:41:31.567Z,97690.50
2022-09-13T11:43:45.205Z,97691.50
2022-09-13T11:45:55.868Z,97694.59
2022-09-13T11:48:15.023Z,97702.09
2022-09-13T11:50:27.223Z,97704.19
2022-09-13T11:52:42.269Z,97707.47
2022-09-13T11:54:56.162Z,97706.66
2022-09-13T11:57:02.866Z,97716.34
2022-09-13T11:59:15.863Z,97700.06
2022-09-13T12:01:22.016Z,97701.28
2022-09-13T12:03:27.616Z,97694.69
2022-09-13T12:05:33.520Z,97686.41
2022-09-13T12:07:41.495Z,97692.75
2022-09-13T12:09:49.271Z,97683.88
2022-09-13T12:11:55.151Z,97676.91
2022-09-13T12:14:01.036Z,97672.00
2022-09-13T12:16:06.953Z,97662.09
2022-09-13T12:18:14.714Z,97664.97
2022-09-13T12:20:21.404Z,97653.84
2022-09-13T12:22:30.246Z,97664.91
2022-09-13T12:24:39.474Z,97664.13
2022-09-13T12:26:46.459Z,97667.22
2022-09-13T12:28:53.599Z,97663.53
2022-09-13T12:30:59.365Z,97660.28
2022-09-13T12:33:02.461Z,97659.19
2022-09-13T12:35:09.272Z,97652.56
2022-09-13T12:37:23.394Z,97647.53
2022-09-13T12:40:06.268Z,97653.47
2022-09-13T12:42:36.192Z,97654.03
2022-09-13T12:44:46.167Z,97651.94
2022-09-13T12:47:05.722Z,97643.69
2022-09-13T12:49:28.278Z,97642.38
2022-09-13T12:51:39.956Z,97637.31
2022-09-13T12:54:07.758Z,97634.59
2022-09-13T12:56:23.187Z,97629.41
2022-09-13T12:58:56.353Z,97632.25
2022-09-13T13:01:09.810Z,97626.22
2022-09-13T13:03:16.473Z,97625.25
2022-09-13T13:05:25.954Z,97619.06
2022-09-13T13:07:30.026Z,97613.25
2022-09-13T13:09:41.000Z,97608.28
2022-09-13T13:11:46.037Z,97611.34
2022-09-13T13:13:57.973Z,97608.56
2022-09-13T13:16:09.082Z,97601.34
2022-09-13T13:18:26.073Z,97595.53
2022-09-13T13:21:06.952Z,97597.03
2022-09-13T13:23:28.571Z,97591.75
2022-09-13T13:25:37.916Z,97592.88
2022-09-13T13:27:48.406Z,97578.47
2022-09-13T13:30:54.061Z,97583.25
2022-09-13T13:33:14.456Z,97569.63
2022-09-13T13:35:32.291Z,97579.91
2022-09-13T13:37:38.219Z,97571.47
2022-09-13T13:39:42.917Z,97574.53
2022-09-13T13:41:52.789Z,97574.09
2022-09-13T13:43:55.958Z,97572.09
2022-09-13T13:46:31.042Z,97570.44
2022-09-13T13:48:39.918Z,97569.19
2022-09-13T13:51:15.500Z,97568.97
2022-09-13T13:53:23.116Z,97557.16
2022-09-13T13:55:41.756Z,97557.56
2022-09-13T13:57:51.612Z,97551.69
2022-09-13T13:59:56.357Z,97558.97
2022-09-13T14:02:01.747Z,97550.59
2022-09-13T14:04:44.546Z,97552.78
2022-09-13T14:06:50.321Z,97557.81
2022-09-13T14:09:03.409Z,97552.84
2022-09-13T14:11:15.794Z,97547.47
2022-09-13T14:13:43.564Z,97541.34
2022-09-13T14:15:52.874Z,97534.00
2022-09-13T14:18:28.464Z,97538.50
2022-09-13T14:20:32.944Z,97533.53
2022-09-13T14:22:35.996Z,97540.53
2022-09-13T14:24:42.619Z,97534.78
2022-09-13T14:26:46.137Z,97534.34
2022-09-13T14:28:49.291Z,97529.56
2022-09-13T14:30:55.117Z,97534.56
2022-09-13T14:32:59.176Z,97530.47
2022-09-13T14:35:03.824Z,97530.69
2022-09-13T14:37:18.029Z,97520.81
2022-09-13T14:39:21.260Z,97521.25
2022-09-13T14:41:32.418Z,97521.25
2022-09-13T14:43:35.365Z,97512.38
2022-09-13T14:45:39.552Z,97510.53
2022-09-13T14:47:48.780Z,97511.91
2022-09-13T14:49:55.699Z,97517.50
2022-09-13T14:52:02.380Z,97506.19
2022-09-13T14:54:10.755Z,97508.88
2022-09-13T14:56:16.879Z,97512.16
2022-09-13T14:58:24.029Z,97503.06
2022-09-13T15:00:27.394Z,97505.16
2022-09-13T15:02:33.171Z,97509.69
2022-09-13T15:04:38.870Z,97514.03
2022-09-13T15:06:45.731Z,97504.31
2022-09-13T15:08:49.222Z,97505.16
2022-09-13T15:10:53.797Z,97497.94
2022-09-13T15:13:08.312Z,97494.78
2022-09-13T15:15:27.589Z,97495.38
2022-09-13T15:17:30.765Z,97488.38
2022-09-13T15:19:39.327Z,97482.19
2022-09-13T15:21:42.625Z,97474.97
2022-09-13T15:23:51.365Z,97471.22
2022-09-13T15:25:57.342Z,97465.06
2022-09-13T15:28:00.435Z,97474.75
2022-09-13T15:30:06.611Z,97460.50
2022-09-13T15:32:22.292Z,97460.50
2022-09-13T15:34:27.483Z,97460.38
2022-09-13T15:36:30.521Z,97460.00
2022-09-13T15:38:34.325Z,97457.78
2022-09-13T15:40:43.877Z,97453.47
2022-09-13T15:42:49.726Z,97447.50
2022-09-13T15:44:52.816Z,97447.97
2022-09-13T15:46:57.594Z,97450.50
2022-09-13T15:49:03.616Z,97435.31
2022-09-13T15:51:11.030Z,97432.50
2022-09-13T15:53:14.109Z,97428.03
2022-09-13T15:55:17.589Z,97430.38
2022-09-13T15:57:23.460Z,97423.81
2022-09-13T15:59:27.976Z,97423.41
2022-09-13T16:01:31.109Z,97422.00
2022-09-13T16:03:34.316Z,97419.53
2022-09-13T16:05:37.362Z,97408.47
2022-09-13T16:07:41.001Z,97415.31
2022-09-13T16:09:44.583Z,97406.47
2022-09-13T16:11:48.276Z,97408.56
2022-09-13T16:13:51.374Z,97409.00
2022-09-13T16:15:58.071Z,97406.19
2022-09-13T16:18:01.253Z,97406.66
2022-09-13T16:20:06.461Z,97402.78
2022-09-13T16:22:12.632Z,97395.41
2022-09-13T16:24:16.294Z,97390.72
2022-09-13T16:26:19.432Z,97389.53
2022-09-13T16:28:22.473Z,97393.72
2022-09-13T16:30:27.743Z,97380.16
2022-09-13T16:32:32.734Z,97387.00
2022-09-13T16:34:35.751Z,97379.88
2022-09-13T16:36:38.864Z,97379.53
2022-09-13T16:38:42.008Z,97379.81
2022-09-13T16:40:45.139Z,97368.97
2022-09-13T16:42:48.102Z,97371.47
2022-09-13T16:44:51.141Z,97375.03
2022-09-13T16:46:54.227Z,97375.94
2022-09-13T16:48:59.044Z,97369.59
2022-09-13T16:51:03.400Z,97369.69
2022-09-13T16:53:06.393Z,97366.81
2022-09-13T16:55:09.896Z,97360.47
2022-09-13T16:57:13.988Z,97366.06
2022-09-13T16:59:17.474Z,97362.75
2022-09-13T17:01:21.968Z,97361.56
2022-09-13T17:03:25.017Z,97359.56
2022-09-13T17:05:29.579Z,97358.94
2022-09-13T17:07:32.665Z,97356.72
2022-09-13T17:09:36.200Z,97358.19
2022-09-13T17:11:41.095Z,97358.03
2022-09-13T17:13:44.291Z,97364.03
2022-09-13T17:15:47.360Z,97364.28
2022-09-13T17:17:50.527Z,97354.47
2022-09-13T17:19:53.590Z,97358.00
2022-09-13T17:21:58.479Z,97360.06
2022-09-13T17:24:02.018Z,97353.56
2022-09-13T17:26:05.878Z,97357.47
2022-09-13T17:28:08.926Z,97361.38
2022-09-13T17:30:12.926Z,97360.97
2022-09-13T17:32:15.973Z,97364.88
2022-09-13T17:34:19.309Z,97352.56
2022-09-13T17:36:22.715Z,97343.97
2022-09-13T17:38:27.316Z,97361.47
2022-09-13T17:40:31.798Z,97361.50
2022-09-13T17:42:34.867Z,97363.63
2022-09-13T17:44:37.960Z,97362.22
2022-09-13T17:46:41.118Z,97371.53
2022-09-13T17:48:45.105Z,97366.81
2022-09-13T17:50:48.270Z,97373.19
2022-09-13T17:52:52.140Z,97374.19
2022-09-13T17:54:56.485Z,97377.91
2022-09-13T17:56:59.566Z,97382.63
2022-09-13T17:59:09.986Z,97377.13
2022-09-13T18:01:14.912Z,97377.13
2022-09-13T18:03:18.746Z,97373.25
2022-09-13T18:05:21.943Z,97368.53
2022-09-13T18:07:25.277Z,97361.16
2022-09-13T18:09:28.395Z,97368.78
2022-09-13T18:11:32.989Z,97370.22
2022-09-13T18:13:36.160Z,97375.97
2022-09-13T18:15:39.205Z,97389.13
2022-09-13T18:17:42.311Z,97383.41
2022-09-13T18:19:47.003Z,97382.38
2022-09-13T18:21:50.587Z,97379.31
2022-09-13T18:23:55.507Z,97385.84
2022-09-13T18:26:02.592Z,97375.81
2022-09-13T19:30:00.299Z,97415.78
2022-09-13T19:32:03.992Z,97409.00
2022-09-13T19:34:07.572Z,97419.22
2022-09-13T19:36:17.725Z,97407.13
2022-09-13T19:38:20.900Z,97409.97
2022-09-13T19:40:24.188Z,97407.72
2022-09-13T19:42:27.302Z,97412.63
2022-09-13T19:44:30.832Z,97415.88
2022-09-13T19:46:37.948Z,97429.53
2022-09-13T19:48:42.270Z,97431.13
2022-09-13T19:50:45.405Z,97422.75
2022-09-13T19:52:49.521Z,97425.16
2022-09-13T19:54:53.186Z,97419.41
2022-09-13T19:56:56.255Z,97423.88
2022-09-13T19:58:59.918Z,97419.75
2022-09-13T20:01:04.181Z,97418.72
2022-09-13T20:03:08.880Z,97419.13
2022-09-13T20:05:11.974Z,97418.47
2022-09-13T20:07:15.041Z,97421.31
2022-09-13T20:09:20.148Z,97419.69
2022-09-13T20:11:25.967Z,97419.25
2022-09-13T20:13:29.224Z,97426.41
2022-09-13T20:15:33.504Z,97422.75
2022-09-13T20:17:37.973Z,97416.97
2022-09-13T20:19:47.614Z,97406.53
2022-09-13T20:21:52.966Z,97403.44
2022-09-13T20:23:57.589Z,97404.25
2022-09-13T20:26:00.812Z,97402.63
2022-09-13T20:28:04.213Z,97407.69
2022-09-13T20:30:08.728Z,97410.94
2022-09-13T20:32:12.088Z,97401.91
2022-09-13T20:34:15.991Z,97397.00
2022-09-13T20:36:20.446Z,97395.56
2022-09-13T20:38:23.727Z,97400.75
2022-09-13T20:40:26.816Z,97396.69
2022-09-13T20:42:29.879Z,97395.28
2022-09-13T20:44:32.916Z,97385.28
2022-09-13T20:46:36.012Z,97394.31
2022-09-13T20:48:39.740Z,97394.72
2022-09-13T20:50:42.945Z,97393.72
2022-09-13T20:52:47.464Z,97390.25
2022-09-13T20:54:50.457Z,97388.13
2022-09-13T20:56:53.463Z,97380.50
2022-09-13T20:58:59.988Z,97375.47
2022-09-13T21:01:04.206Z,97370.66
2022-09-13T21:03:08.133Z,97374.09
2022-09-13T21:05:11.266Z,97364.50
2022-09-13T21:07:31.750Z,97365.31
2022-09-13T21:09:36.070Z,97363.03
2022-09-13T21:11:39.042Z,97371.81
2022-09-13T21:13:44.768Z,97364.03
2022-09-13T21:15:50.309Z,97366.50
2022-09-13T21:17:53.744Z,97361.38
2022-09-13T21:19:56.740Z,97366.88
2022-09-13T21:22:01.441Z,97368.53
2022-09-13T21:24:05.833Z,97361.38
2022-09-13T21:26:11.820Z,97365.88
2022-09-13T21:28:14.929Z,97370.00
2022-09-13T21:30:18.162Z,97367.16
2022-09-13T21:32:21.183Z,97364.50
2022-09-13T21:34:26.430Z,97362.44
2022-09-13T21:36:30.503Z,97361.06
2022-09-13T21:38:35.157Z,97359.03
2022-09-13T21:40:38.243Z,97362.94
2022-09-13T21:42:42.875Z,97359.91
2022-09-13T21:44:46.258Z,97351.56
2022-09-13T21:46:51.404Z,97354.00
2022-09-13T21:48:56.653Z,97356.09
2022-09-13T21:51:06.951Z,97354.69
2022-09-13T21:53:09.964Z,97352.03
2022-09-13T21:55:13.004Z,97340.41
2022-09-13T21:57:15.990Z,97342.91
2022-09-13T21:59:22.799Z,97349.09
2022-09-13T22:01:27.106Z,97348.31
2022-09-13T22:03:30.460Z,97345.66
2022-09-13T22:05:34.085Z,97347.34
2022-09-13T22:07:37.390Z,97349.81
2022-09-13T22:09:40.417Z,97345.91
2022-09-13T22:11:44.651Z,97341.25
2022-09-13T22:13:48.079Z,97339.19
2022-09-13T22:15:52.481Z,97339.59
2022-09-13T22:17:55.551Z,97345.56
2022-09-13T22:19:58.595Z,97336.75
2022-09-13T22:22:01.555Z,97334.72
2022-09-13T22:24:05.879Z,97328.56
2022-09-13T22:26:10.319Z,97327.75
2022-09-13T22:28:13.334Z,97325.69
2022-09-13T22:30:16.336Z,97314.19
2022-09-13T22:32:23.298Z,97308.06
2022-09-13T22:34:30.795Z,97308.44
2022-09-13T22:36:34.059Z,97312.09
2022-09-13T22:38:37.845Z,97317.41
2022-09-13T22:40:41.107Z,97318.28
2022-09-13T22:42:44.093Z,97302.72
2022-09-13T22:44:47.115Z,97303.75
2022-09-13T22:46:50.183Z,97309.06
2022-09-13T22:48:55.710Z,97301.50
2022-09-13T22:50:59.191Z,97295.38
2022-09-13T22:53:02.222Z,97285.13
2022-09-13T22:55:06.160Z,97279.81
2022-09-13T22:57:09.143Z,97280.00
2022-09-13T22:59:14.854Z,97268.75
2022-09-13T23:01:19.945Z,97267.34
2022-09-13T23:03:22.960Z,97262.84
2022-09-13T23:05:27.442Z,97263.06
2022-09-13T23:07:30.411Z,97274.13
2022-09-13T23:09:33.414Z,97272.09
2022-09-13T23:11:38.031Z,97285.81
2022-09-13T23:13:41.077Z,97278.63
2022-09-13T23:15:44.061Z,97286.22
2022-09-13T23:17:47.163Z,97286.00
2022-09-13T23:19:50.214Z,97287.66
2022-09-13T23:21:54.683Z,97288.47
2022-09-13T23:23:59.161Z,97281.34
2022-09-13T23:26:07.113Z,97289.31
2022-09-13T23:28:10.140Z,97288.47
2022-09-13T23:30:13.648Z,97282.53
2022-09-13T23:32:16.946Z,97280.91
2022-09-13T23:34:20.706Z,97284.78
2022-09-13T23:36:25.537Z,97275.75
2022-09-13T23:38:29.877Z,97272.88
2022-09-13T23:40:32.969Z,97276.94
2022-09-13T23:42:35.979Z,97264.91
2022-09-13T23:44:38.986Z,97264.06
2022-09-13T23:46:42.126Z,97264.06
2022-09-13T23:48:45.517Z,97259.78
2022-09-13T23:50:48.588Z,97255.88
2022-09-13T23:52:51.775Z,97248.25
2022-09-13T23:54:57.086Z,97252.72
2022-09-13T23:57:00.050Z,97244.09
2022-09-13T23:59:04.658Z,97243.84
